sensor_id;sensor_type;location;lat;lon;timestamp;pressure;altitude;pressure_sealevel;temperature;humidity
64516;BME280;50891;37.380;-122.076;2022-10-16T00:00:41;100768.78;;;28.56;36.68
64516;BME280;50891;37.380;-122.076;2022-10-16T00:03:09;100765.88;;;28.63;36.64
64516;BME280;50891;37.380;-122.076;2022-10-16T00:05:41;100768.84;;;28.62;36.82
64516;BME280;50891;37.380;-122.076;2022-10-16T00:08:09;100769.41;;;28.64;36.69
64516;BME280;50891;37.380;-122.076;2022-10-16T00:10:35;100777.09;;;28.72;36.33
64516;BME280;50891;37.380;-122.076;2022-10-16T00:13:02;100763.81;;;28.70;36.33
64516;BME280;50891;37.380;-122.076;2022-10-16T00:15:28;100763.47;;;28.67;36.09
64516;BME280;50891;37.380;-122.076;2022-10-16T00:17:55;100771.13;;;28.70;36.04
64516;BME280;50891;37.380;-122.076;2022-10-16T00:20:21;100765.69;;;28.70;36.03
64516;BME280;50891;37.380;-122.076;2022-10-16T00:22:47;100765.19;;;28.73;35.86
64516;BME280;50891;37.380;-122.076;2022-10-16T00:25:14;100766.75;;;28.69;36.14
64516;BME280;50891;37.380;-122.076;2022-10-16T00:27:40;100763.56;;;28.72;36.09
64516;BME280;50891;37.380;-122.076;2022-10-16T00:30:07;100775.44;;;28.71;36.06
64516;BME280;50891;37.380;-122.076;2022-10-16T00:32:34;100767.88;;;28.73;36.19
64516;BME280;50891;37.380;-122.076;2022-10-16T00:35:00;100771.97;;;28.75;36.21
64516;BME280;50891;37.380;-122.076;2022-10-16T00:37:26;100766.88;;;28.79;36.16
64516;BME280;50891;37.380;-122.076;2022-10-16T00:39:52;100765.25;;;28.78;36.02
64516;BME280;50891;37.380;-122.076;2022-10-16T00:42:19;100764.09;;;28.74;35.96
64516;BME280;50891;37.380;-122.076;2022-10-16T00:44:54;100762.66;;;28.66;36.04
64516;BME280;50891;37.380;-122.076;2022-10-16T00:47:34;100768.31;;;28.65;35.89
64516;BME280;50891;37.380;-122.076;2022-10-16T00:50:16;100768.59;;;28.63;36.08
64516;BME280;50891;37.380;-122.076;2022-10-16T00:52:46;100773.69;;;28.60;36.29
64516;BME280;50891;37.380;-122.076;2022-10-16T00:55:13;100772.63;;;28.61;36.27
64516;BME280;50891;37.380;-122.076;2022-10-16T00:57:40;100776.38;;;28.60;36.15
64516;BME280;50891;37.380;-122.076;2022-10-16T01:00:10;100777.47;;;28.58;36.52
64516;BME280;50891;37.380;-122.076;2022-10-16T01:02:37;100775.81;;;28.57;36.48
64516;BME280;50891;37.380;-122.076;2022-10-16T01:05:04;100790.94;;;28.53;36.41
64516;BME280;50891;37.380;-122.076;2022-10-16T01:07:45;100789.28;;;28.52;36.42
64516;BME280;50891;37.380;-122.076;2022-10-16T01:10:40;100794.41;;;28.49;36.06
64516;BME280;50891;37.380;-122.076;2022-10-16T01:13:13;100792.06;;;28.41;36.47
64516;BME280;50891;37.380;-122.076;2022-10-16T01:18:31;100802.50;;;28.32;36.09
64516;BME280;50891;37.380;-122.076;2022-10-16T01:21:08;100799.78;;;28.32;36.00
64516;BME280;50891;37.380;-122.076;2022-10-16T01:23:48;100803.56;;;28.31;36.09
64516;BME280;50891;37.380;-122.076;2022-10-16T01:32:52;100810.34;;;28.11;36.10
64516;BME280;50891;37.380;-122.076;2022-10-16T01:38:04;100816.16;;;28.03;36.12
64516;BME280;50891;37.380;-122.076;2022-10-16T01:40:34;100813.22;;;28.05;35.95
64516;BME280;50891;37.380;-122.076;2022-10-16T01:43:08;100817.53;;;28.06;35.96
64516;BME280;50891;37.380;-122.076;2022-10-16T01:45:38;100816.66;;;28.00;36.23
64516;BME280;50891;37.380;-122.076;2022-10-16T01:48:06;100822.63;;;28.02;36.40
64516;BME280;50891;37.380;-122.076;2022-10-16T01:50:38;100826.38;;;28.01;36.34
64516;BME280;50891;37.380;-122.076;2022-10-16T01:53:07;100822.28;;;27.99;36.55
64516;BME280;50891;37.380;-122.076;2022-10-16T01:55:39;100826.88;;;27.98;36.65
64516;BME280;50891;37.380;-122.076;2022-10-16T01:58:10;100827.94;;;27.97;36.58
64516;BME280;50891;37.380;-122.076;2022-10-16T02:00:38;100830.63;;;27.97;36.55
64516;BME280;50891;37.380;-122.076;2022-10-16T02:03:05;100835.56;;;28.00;36.74
64516;BME280;50891;37.380;-122.076;2022-10-16T02:05:45;100829.34;;;28.00;36.65
64516;BME280;50891;37.380;-122.076;2022-10-16T02:08:12;100830.47;;;28.04;36.50
64516;BME280;50891;37.380;-122.076;2022-10-16T02:10:39;100831.31;;;28.04;36.70
64516;BME280;50891;37.380;-122.076;2022-10-16T02:15:37;100846.47;;;28.05;36.92
64516;BME280;50891;37.380;-122.076;2022-10-16T02:18:05;100838.50;;;27.99;37.19
64516;BME280;50891;37.380;-122.076;2022-10-16T02:20:37;100842.13;;;28.04;37.07
64516;BME280;50891;37.380;-122.076;2022-10-16T02:23:08;100852.28;;;28.14;36.87
64516;BME280;50891;37.380;-122.076;2022-10-16T02:25:40;100845.00;;;28.14;36.59
64516;BME280;50891;37.380;-122.076;2022-10-16T02:28:29;100836.53;;;28.11;36.80
64516;BME280;50891;37.380;-122.076;2022-10-16T02:31:03;100850.97;;;28.16;36.71
64516;BME280;50891;37.380;-122.076;2022-10-16T02:33:31;100839.66;;;28.20;36.31
64516;BME280;50891;37.380;-122.076;2022-10-16T02:35:59;100859.16;;;28.22;36.52
64516;BME280;50891;37.380;-122.076;2022-10-16T02:38:25;100855.06;;;28.19;36.21
64516;BME280;50891;37.380;-122.076;2022-10-16T02:40:52;100850.97;;;28.16;36.35
64516;BME280;50891;37.380;-122.076;2022-10-16T02:43:18;100860.47;;;28.19;36.02
64516;BME280;50891;37.380;-122.076;2022-10-16T02:45:45;100860.25;;;28.21;36.37
64516;BME280;50891;37.380;-122.076;2022-10-16T02:48:11;100861.88;;;28.22;36.30
64516;BME280;50891;37.380;-122.076;2022-10-16T02:50:37;100857.78;;;28.19;36.34
64516;BME280;50891;37.380;-122.076;2022-10-16T02:53:03;100864.50;;;28.16;36.02
64516;BME280;50891;37.380;-122.076;2022-10-16T02:55:30;100863.91;;;28.14;36.17
64516;BME280;50891;37.380;-122.076;2022-10-16T02:57:56;100866.63;;;28.14;35.86
64516;BME280;50891;37.380;-122.076;2022-10-16T03:00:22;100855.72;;;28.09;36.30
64516;BME280;50891;37.380;-122.076;2022-10-16T03:02:48;100853.50;;;28.06;36.13
64516;BME280;50891;37.380;-122.076;2022-10-16T03:05:15;100859.47;;;28.08;36.25
64516;BME280;50891;37.380;-122.076;2022-10-16T03:07:41;100863.56;;;28.11;36.00
64516;BME280;50891;37.380;-122.076;2022-10-16T03:10:08;100865.47;;;28.10;36.23
64516;BME280;50891;37.380;-122.076;2022-10-16T03:12:34;100866.56;;;28.09;35.88
64516;BME280;50891;37.380;-122.076;2022-10-16T03:15:00;100865.97;;;28.07;36.01
64516;BME280;50891;37.380;-122.076;2022-10-16T03:17:26;100871.13;;;28.09;35.86
64516;BME280;50891;37.380;-122.076;2022-10-16T03:19:53;100875.41;;;28.05;35.97
64516;BME280;50891;37.380;-122.076;2022-10-16T03:22:19;100874.31;;;28.06;35.75
64516;BME280;50891;37.380;-122.076;2022-10-16T03:24:45;100880.22;;;28.03;35.84
64516;BME280;50891;37.380;-122.076;2022-10-16T03:27:11;100879.66;;;28.01;35.95
64516;BME280;50891;37.380;-122.076;2022-10-16T03:29:37;100878.03;;;28.00;35.93
64516;BME280;50891;37.380;-122.076;2022-10-16T03:32:04;100881.53;;;28.00;35.99
64516;BME280;50891;37.380;-122.076;2022-10-16T03:34:30;100879.88;;;27.99;35.96
64516;BME280;50891;37.380;-122.076;2022-10-16T03:36:56;100882.00;;;27.97;35.97
64516;BME280;50891;37.380;-122.076;2022-10-16T03:39:22;100878.25;;;27.98;35.86
64516;BME280;50891;37.380;-122.076;2022-10-16T03:41:48;100872.84;;;27.98;35.87
64516;BME280;50891;37.380;-122.076;2022-10-16T03:44:15;100877.69;;;27.96;35.80
64516;BME280;50891;37.380;-122.076;2022-10-16T03:46:41;100878.19;;;27.93;35.91
64516;BME280;50891;37.380;-122.076;2022-10-16T03:49:07;100884.41;;;27.93;35.85
64516;BME280;50891;37.380;-122.076;2022-10-16T03:51:33;100891.19;;;27.96;36.17
64516;BME280;50891;37.380;-122.076;2022-10-16T03:53:59;100896.38;;;27.98;36.03
64516;BME280;50891;37.380;-122.076;2022-10-16T03:56:26;100902.00;;;27.96;35.88
64516;BME280;50891;37.380;-122.076;2022-10-16T03:58:52;100890.63;;;27.94;35.88
64516;BME280;50891;37.380;-122.076;2022-10-16T04:01:18;100899.22;;;27.91;36.08
64516;BME280;50891;37.380;-122.076;2022-10-16T04:03:44;100901.94;;;27.91;35.92
64516;BME280;50891;37.380;-122.076;2022-10-16T04:06:10;100889.97;;;27.87;35.89
64516;BME280;50891;37.380;-122.076;2022-10-16T04:08:37;100896.53;;;27.91;35.82
64516;BME280;50891;37.380;-122.076;2022-10-16T04:11:04;100895.94;;;27.89;35.90
64516;BME280;50891;37.380;-122.076;2022-10-16T04:13:31;100907.25;;;27.86;36.28
64516;BME280;50891;37.380;-122.076;2022-10-16T04:15:57;100908.53;;;27.83;36.28
64516;BME280;50891;37.380;-122.076;2022-10-16T04:18:23;100912.50;;;27.81;36.37
64516;BME280;50891;37.380;-122.076;2022-10-16T04:20:53;100907.09;;;27.81;36.47
64516;BME280;50891;37.380;-122.076;2022-10-16T04:23:20;100920.38;;;27.82;36.40
64516;BME280;50891;37.380;-122.076;2022-10-16T04:25:46;100922.03;;;27.83;36.30
64516;BME280;50891;37.380;-122.076;2022-10-16T04:28:12;100920.38;;;27.82;36.46
64516;BME280;50891;37.380;-122.076;2022-10-16T04:30:39;100917.47;;;27.84;36.67
64516;BME280;50891;37.380;-122.076;2022-10-16T04:33:05;100913.72;;;27.85;36.56
64516;BME280;50891;37.380;-122.076;2022-10-16T04:35:31;100920.78;;;27.86;36.41
64516;BME280;50891;37.380;-122.076;2022-10-16T04:37:58;100917.00;;;27.87;36.74
64516;BME280;50891;37.380;-122.076;2022-10-16T04:40:24;100925.09;;;27.87;36.63
64516;BME280;50891;37.380;-122.076;2022-10-16T04:42:50;100925.91;;;27.87;36.54
64516;BME280;50891;37.380;-122.076;2022-10-16T04:45:16;100935.41;;;27.90;36.59
64516;BME280;50891;37.380;-122.076;2022-10-16T04:47:43;100929.44;;;27.88;36.71
64516;BME280;50891;37.380;-122.076;2022-10-16T04:50:09;100940.25;;;27.88;36.60
64516;BME280;50891;37.380;-122.076;2022-10-16T04:52:36;100935.34;;;27.85;36.84
64516;BME280;50891;37.380;-122.076;2022-10-16T04:55:02;100940.75;;;27.85;36.98
64516;BME280;50891;37.380;-122.076;2022-10-16T04:57:29;100939.94;;;27.84;36.79
64516;BME280;50891;37.380;-122.076;2022-10-16T04:59:56;100944.03;;;27.87;36.71
64516;BME280;50891;37.380;-122.076;2022-10-16T05:02:22;100941.91;;;27.89;36.58
64516;BME280;50891;37.380;-122.076;2022-10-16T05:04:48;100947.31;;;27.89;36.85
64516;BME280;50891;37.380;-122.076;2022-10-16T05:07:14;100950.00;;;27.89;36.78
64516;BME280;50891;37.380;-122.076;2022-10-16T05:09:41;100950.31;;;27.92;36.46
64516;BME280;50891;37.380;-122.076;2022-10-16T05:12:07;100953.03;;;27.92;36.68
64516;BME280;50891;37.380;-122.076;2022-10-16T05:14:33;100958.22;;;27.94;36.78
64516;BME280;50891;37.380;-122.076;2022-10-16T05:17:00;100955.50;;;27.94;36.67
64516;BME280;50891;37.380;-122.076;2022-10-16T05:19:26;100962.81;;;27.93;36.49
64516;BME280;50891;37.380;-122.076;2022-10-16T05:21:53;100960.31;;;27.92;36.54
64516;BME280;50891;37.380;-122.076;2022-10-16T05:24:19;100955.41;;;27.89;36.75
64516;BME280;50891;37.380;-122.076;2022-10-16T05:26:45;100966.22;;;27.89;36.79
64516;BME280;50891;37.380;-122.076;2022-10-16T05:29:11;100958.94;;;27.89;36.69
64516;BME280;50891;37.380;-122.076;2022-10-16T05:31:37;100964.69;;;27.93;36.62
64516;BME280;50891;37.380;-122.076;2022-10-16T05:34:04;100956.47;;;27.88;36.60
64516;BME280;50891;37.380;-122.076;2022-10-16T05:36:30;100963.31;;;27.79;36.64
64516;BME280;50891;37.380;-122.076;2022-10-16T05:38:56;100955.75;;;27.81;36.44
64516;BME280;50891;37.380;-122.076;2022-10-16T05:41:22;100955.75;;;27.81;36.42
64516;BME280;50891;37.380;-122.076;2022-10-16T05:43:51;100954.72;;;27.82;36.41
64516;BME280;50891;37.380;-122.076;2022-10-16T05:46:18;100960.72;;;27.84;36.09
64516;BME280;50891;37.380;-122.076;2022-10-16T05:48:44;100960.34;;;27.80;36.26
64516;BME280;50891;37.380;-122.076;2022-10-16T05:51:12;100970.59;;;27.78;36.02
64516;BME280;50891;37.380;-122.076;2022-10-16T05:53:40;100966.16;;;27.72;36.22
64516;BME280;50891;37.380;-122.076;2022-10-16T05:56:09;100968.50;;;27.68;36.48
64516;BME280;50891;37.380;-122.076;2022-10-16T05:58:37;100967.47;;;27.69;36.58
64516;BME280;50891;37.380;-122.076;2022-10-16T06:01:10;100965.31;;;27.71;36.70
64516;BME280;50891;37.380;-122.076;2022-10-16T06:03:37;100959.69;;;27.73;36.42
64516;BME280;50891;37.380;-122.076;2022-10-16T06:06:17;100966.25;;;27.77;36.55
64516;BME280;50891;37.380;-122.076;2022-10-16T06:08:45;100964.84;;;27.74;36.42
64516;BME280;50891;37.380;-122.076;2022-10-16T06:11:15;100962.38;;;27.73;36.65
64516;BME280;50891;37.380;-122.076;2022-10-16T06:13:41;100964.75;;;27.69;36.99
64516;BME280;50891;37.380;-122.076;2022-10-16T06:16:09;100963.00;;;27.63;37.33
64516;BME280;50891;37.380;-122.076;2022-10-16T06:18:36;100957.50;;;27.58;37.41
64516;BME280;50891;37.380;-122.076;2022-10-16T06:21:22;100953.50;;;27.61;37.79
64516;BME280;50891;37.380;-122.076;2022-10-16T06:23:51;100958.56;;;27.57;37.77
64516;BME280;50891;37.380;-122.076;2022-10-16T06:26:19;100957.97;;;27.55;38.03
64516;BME280;50891;37.380;-122.076;2022-10-16T06:28:46;100961.25;;;27.57;37.88
64516;BME280;50891;37.380;-122.076;2022-10-16T06:31:13;100956.94;;;27.56;38.02
64516;BME280;50891;37.380;-122.076;2022-10-16T06:33:40;100953.16;;;27.57;38.01
64516;BME280;50891;37.380;-122.076;2022-10-16T06:36:11;100958.47;;;27.52;38.46
64516;BME280;50891;37.380;-122.076;2022-10-16T06:38:39;100945.19;;;27.50;38.27
64516;BME280;50891;37.380;-122.076;2022-10-16T06:41:07;100956.00;;;27.50;38.03
64516;BME280;50891;37.380;-122.076;2022-10-16T06:43:33;100955.28;;;27.55;37.97
64516;BME280;50891;37.380;-122.076;2022-10-16T06:46:04;100956.94;;;27.56;38.02
64516;BME280;50891;37.380;-122.076;2022-10-16T06:48:31;100965.75;;;27.51;37.90
64516;BME280;50891;37.380;-122.076;2022-10-16T06:51:17;100971.88;;;27.47;38.10
64516;BME280;50891;37.380;-122.076;2022-10-16T06:53:49;100974.94;;;27.39;38.29
64516;BME280;50891;37.380;-122.076;2022-10-16T06:56:17;100969.53;;;27.39;38.35
64516;BME280;50891;37.380;-122.076;2022-10-16T06:58:44;100974.94;;;27.39;38.25
64516;BME280;50891;37.380;-122.076;2022-10-16T07:01:11;100975.63;;;27.46;38.60
64516;BME280;50891;37.380;-122.076;2022-10-16T07:03:40;100976.19;;;27.48;38.64
64516;BME280;50891;37.380;-122.076;2022-10-16T07:06:08;100980.47;;;27.44;39.08
64516;BME280;50891;37.380;-122.076;2022-10-16T07:08:35;100974.47;;;27.42;39.38
64516;BME280;50891;37.380;-122.076;2022-10-16T07:11:04;100974.59;;;27.35;39.65
64516;BME280;50891;37.380;-122.076;2022-10-16T07:13:39;100979.66;;;27.31;39.58
64516;BME280;50891;37.380;-122.076;2022-10-16T07:16:16;100980.50;;;27.32;39.54
64516;BME280;50891;37.380;-122.076;2022-10-16T07:18:43;100977.53;;;27.33;39.40
64516;BME280;50891;37.380;-122.076;2022-10-16T07:21:16;100976.72;;;27.33;39.53
64516;BME280;50891;37.380;-122.076;2022-10-16T07:23:43;100973.09;;;27.27;39.39
64516;BME280;50891;37.380;-122.076;2022-10-16T07:26:10;100981.66;;;27.24;39.31
64516;BME280;50891;37.380;-122.076;2022-10-16T07:28:37;100971.78;;;27.18;39.44
64516;BME280;50891;37.380;-122.076;2022-10-16T07:31:05;100973.66;;;27.18;39.19
64516;BME280;50891;37.380;-122.076;2022-10-16T07:33:33;100977.34;;;27.23;39.26
64516;BME280;50891;37.380;-122.076;2022-10-16T07:36:00;100972.38;;;27.20;39.13
64516;BME280;50891;37.380;-122.076;2022-10-16T07:38:26;100970.28;;;27.22;39.11
64516;BME280;50891;37.380;-122.076;2022-10-16T07:41:00;100970.28;;;27.22;39.17
64516;BME280;50891;37.380;-122.076;2022-10-16T07:43:27;100974.63;;;27.23;38.77
64516;BME280;50891;37.380;-122.076;2022-10-16T07:45:53;100977.91;;;27.25;38.84
64516;BME280;50891;37.380;-122.076;2022-10-16T07:48:21;100972.84;;;27.29;38.81
64516;BME280;50891;37.380;-122.076;2022-10-16T07:50:48;100977.06;;;27.37;38.58
64516;BME280;50891;37.380;-122.076;2022-10-16T07:53:15;100970.59;;;27.38;38.36
64516;BME280;50891;37.380;-122.076;2022-10-16T07:55:41;100980.94;;;27.41;38.22
64516;BME280;50891;37.380;-122.076;2022-10-16T07:58:08;100976.81;;;27.38;37.95
64516;BME280;50891;37.380;-122.076;2022-10-16T08:00:36;100978.72;;;27.38;38.01
64516;BME280;50891;37.380;-122.076;2022-10-16T08:03:03;100985.41;;;27.35;37.89
64516;BME280;50891;37.380;-122.076;2022-10-16T08:05:31;100993.25;;;27.37;37.58
64516;BME280;50891;37.380;-122.076;2022-10-16T08:07:57;100994.09;;;27.37;37.70
64516;BME280;50891;37.380;-122.076;2022-10-16T08:10:26;101009.47;;;27.37;37.28
64516;BME280;50891;37.380;-122.076;2022-10-16T08:12:53;101001.84;;;27.33;37.33
64516;BME280;50891;37.380;-122.076;2022-10-16T08:15:19;100995.84;;;27.31;37.21
64516;BME280;50891;37.380;-122.076;2022-10-16T08:17:57;101007.63;;;27.25;37.48
64516;BME280;50891;37.380;-122.076;2022-10-16T08:20:23;101009.75;;;27.23;37.36
64516;BME280;50891;37.380;-122.076;2022-10-16T08:22:49;101011.03;;;27.21;37.34
64516;BME280;50891;37.380;-122.076;2022-10-16T08:25:16;101009.81;;;27.17;37.22
64516;BME280;50891;37.380;-122.076;2022-10-16T08:27:42;101008.16;;;27.16;37.22
64516;BME280;50891;37.380;-122.076;2022-10-16T08:30:09;101018.16;;;27.15;37.22
64516;BME280;50891;37.380;-122.076;2022-10-16T08:32:35;101020.03;;;27.15;37.49
64516;BME280;50891;37.380;-122.076;2022-10-16T08:35:01;101020.25;;;27.13;37.33
64516;BME280;50891;37.380;-122.076;2022-10-16T08:37:31;101030.03;;;27.14;37.47
64516;BME280;50891;37.380;-122.076;2022-10-16T08:39:58;101029.44;;;27.12;37.17
64516;BME280;50891;37.380;-122.076;2022-10-16T08:45:19;101031.53;;;27.10;37.24
64516;BME280;50891;37.380;-122.076;2022-10-16T08:50:38;101040.47;;;27.10;37.06
64516;BME280;50891;37.380;-122.076;2022-10-16T08:53:05;101045.03;;;27.10;36.98
64516;BME280;50891;37.380;-122.076;2022-10-16T08:55:50;101036.59;;;27.06;37.13
64516;BME280;50891;37.380;-122.076;2022-10-16T08:58:22;101051.16;;;27.05;36.97
64516;BME280;50891;37.380;-122.076;2022-10-16T09:00:57;101054.06;;;27.04;36.95
64516;BME280;50891;37.380;-122.076;2022-10-16T09:14:40;101042.56;;;26.97;36.74
64516;BME280;50891;37.380;-122.076;2022-10-16T09:17:36;101054.66;;;26.94;36.85
64516;BME280;50891;37.380;-122.076;2022-10-16T09:23:18;101057.84;;;26.91;36.86
64516;BME280;50891;37.380;-122.076;2022-10-16T09:25:47;101059.72;;;26.90;36.94
64516;BME280;50891;37.380;-122.076;2022-10-16T09:28:16;101058.91;;;26.90;36.94
64516;BME280;50891;37.380;-122.076;2022-10-16T09:30:43;101065.34;;;26.89;36.95
64516;BME280;50891;37.380;-122.076;2022-10-16T09:33:11;101062.03;;;26.87;36.84
64516;BME280;50891;37.380;-122.076;2022-10-16T09:35:40;101058.53;;;26.86;37.00
64516;BME280;50891;37.380;-122.076;2022-10-16T09:38:08;101059.59;;;26.85;37.33
64516;BME280;50891;37.380;-122.076;2022-10-16T09:40:38;101060.63;;;26.84;37.02
64516;BME280;50891;37.380;-122.076;2022-10-16T09:43:18;101063.34;;;26.84;36.99
64516;BME280;50891;37.380;-122.076;2022-10-16T09:48:22;101065.44;;;26.82;36.86
64516;BME280;50891;37.380;-122.076;2022-10-16T09:51:03;101064.41;;;26.83;36.85
64516;BME280;50891;37.380;-122.076;2022-10-16T09:53:42;101075.66;;;26.80;36.96
64516;BME280;50891;37.380;-122.076;2022-10-16T09:56:11;101076.72;;;26.79;36.83
64516;BME280;50891;37.380;-122.076;2022-10-16T09:58:50;101071.09;;;26.81;36.86
64516;BME280;50891;37.380;-122.076;2022-10-16T10:01:17;101069.66;;;26.78;36.95
64516;BME280;50891;37.380;-122.076;2022-10-16T10:03:44;101082.13;;;26.79;36.84
64516;BME280;50891;37.380;-122.076;2022-10-16T10:08:57;101089.03;;;26.75;36.70
64516;BME280;50891;37.380;-122.076;2022-10-16T10:16:50;101090.19;;;26.67;36.92
64516;BME280;50891;37.380;-122.076;2022-10-16T10:19:24;101095.81;;;26.66;36.98
64516;BME280;50891;37.380;-122.076;2022-10-16T10:21:50;101093.56;;;26.63;36.95
64516;BME280;50891;37.380;-122.076;2022-10-16T10:24:19;101094.59;;;26.62;36.89
64516;BME280;50891;37.380;-122.076;2022-10-16T10:27:10;101091.91;;;26.62;37.09
64516;BME280;50891;37.380;-122.076;2022-10-16T10:38:20;101084.13;;;26.54;37.20
64516;BME280;50891;37.380;-122.076;2022-10-16T10:55:37;101087.03;;;26.52;36.98
64516;BME280;50891;37.380;-122.076;2022-10-16T10:58:24;101091.03;;;26.49;37.27
64516;BME280;50891;37.380;-122.076;2022-10-16T11:01:08;101091.50;;;26.46;37.17
64516;BME280;50891;37.380;-122.076;2022-10-16T11:06:26;101099.59;;;26.46;37.19
64516;BME280;50891;37.380;-122.076;2022-10-16T11:11:50;101099.22;;;26.43;37.11
64516;BME280;50891;37.380;-122.076;2022-10-16T11:14:21;101095.34;;;26.39;37.27
64516;BME280;50891;37.380;-122.076;2022-10-16T11:17:00;101095.91;;;26.41;37.17
64516;BME280;50891;37.380;-122.076;2022-10-16T11:33:02;101099.16;;;26.31;37.46
64516;BME280;50891;37.380;-122.076;2022-10-16T11:35:42;101109.13;;;26.31;37.50
64516;BME280;50891;37.380;-122.076;2022-10-16T11:38:16;101106.66;;;26.29;37.47
64516;BME280;50891;37.380;-122.076;2022-10-16T11:40:45;101110.41;;;26.28;37.51
64516;BME280;50891;37.380;-122.076;2022-10-16T11:43:19;101115.00;;;26.27;37.63
64516;BME280;50891;37.380;-122.076;2022-10-16T11:45:55;101112.06;;;26.29;37.72
64516;BME280;50891;37.380;-122.076;2022-10-16T11:56:28;101127.41;;;26.28;37.48
64516;BME280;50891;37.380;-122.076;2022-10-16T12:09:34;101134.09;;;26.26;37.57
64516;BME280;50891;37.380;-122.076;2022-10-16T12:12:02;101137.00;;;26.24;37.66
64516;BME280;50891;37.380;-122.076;2022-10-16T12:17:00;101140.16;;;26.21;37.50
64516;BME280;50891;37.380;-122.076;2022-10-16T12:19:31;101145.78;;;26.20;37.54
64516;BME280;50891;37.380;-122.076;2022-10-16T12:22:00;101144.34;;;26.17;37.52
64516;BME280;50891;37.380;-122.076;2022-10-16T12:24:42;101151.63;;;26.17;37.59
64516;BME280;50891;37.380;-122.076;2022-10-16T12:27:28;101151.03;;;26.15;37.58
64516;BME280;50891;37.380;-122.076;2022-10-16T12:29:57;101150.41;;;26.13;37.68
64516;BME280;50891;37.380;-122.076;2022-10-16T12:32:37;101142.66;;;26.04;37.81
64516;BME280;50891;37.380;-122.076;2022-10-16T12:35:16;101154.41;;;26.10;37.89
64516;BME280;50891;37.380;-122.076;2022-10-16T12:37:44;101161.66;;;26.10;37.91
64516;BME280;50891;37.380;-122.076;2022-10-16T12:40:13;101152.97;;;26.07;37.91
64516;BME280;50891;37.380;-122.076;2022-10-16T12:42:41;101157.09;;;26.10;37.85
64516;BME280;50891;37.380;-122.076;2022-10-16T12:45:31;101159.19;;;26.08;38.06
64516;BME280;50891;37.380;-122.076;2022-10-16T12:47:59;101162.72;;;26.09;37.98
64516;BME280;50891;37.380;-122.076;2022-10-16T12:50:37;101159.19;;;26.08;37.90
64516;BME280;50891;37.380;-122.076;2022-10-16T12:53:25;101161.88;;;26.08;37.89
64516;BME280;50891;37.380;-122.076;2022-10-16T12:56:22;101170.81;;;26.09;37.80
64516;BME280;50891;37.380;-122.076;2022-10-16T12:59:14;101169.75;;;26.10;37.91
64516;BME280;50891;37.380;-122.076;2022-10-16T13:02:27;101168.13;;;26.09;37.75
64516;BME280;50891;37.380;-122.076;2022-10-16T13:11:05;101175.00;;;26.04;37.79
64516;BME280;50891;37.380;-122.076;2022-10-16T13:14:13;101166.78;;;25.99;37.84
64516;BME280;50891;37.380;-122.076;2022-10-16T13:17:16;101169.47;;;25.99;38.02
64516;BME280;50891;37.380;-122.076;2022-10-16T13:22:48;101173.44;;;25.97;37.78
64516;BME280;50891;37.380;-122.076;2022-10-16T13:28:14;101171.41;;;25.92;37.94
64516;BME280;50891;37.380;-122.076;2022-10-16T13:30:51;101176.41;;;25.89;38.07
64516;BME280;50891;37.380;-122.076;2022-10-16T13:33:24;101183.69;;;25.88;38.08
64516;BME280;50891;37.380;-122.076;2022-10-16T13:35:55;101182.88;;;25.88;38.20
64516;BME280;50891;37.380;-122.076;2022-10-16T13:38:24;101192.78;;;25.87;38.21
64516;BME280;50891;37.380;-122.076;2022-10-16T13:41:19;101194.47;;;25.88;38.30
64516;BME280;50891;37.380;-122.076;2022-10-16T13:43:51;101195.09;;;25.83;38.33
64516;BME280;50891;37.380;-122.076;2022-10-16T13:46:20;101194.84;;;25.85;38.34
64516;BME280;50891;37.380;-122.076;2022-10-16T13:49:05;101193.22;;;25.84;38.10
64516;BME280;50891;37.380;-122.076;2022-10-16T13:51:32;101199.66;;;25.83;38.17
64516;BME280;50891;37.380;-122.076;2022-10-16T13:53:59;101192.41;;;25.83;38.13
64516;BME280;50891;37.380;-122.076;2022-10-16T13:56:28;101189.72;;;25.83;38.13
64516;BME280;50891;37.380;-122.076;2022-10-16T13:59:04;101188.03;;;25.82;37.98
64516;BME280;50891;37.380;-122.076;2022-10-16T14:01:41;101189.72;;;25.83;38.08
64516;BME280;50891;37.380;-122.076;2022-10-16T14:04:10;101191.59;;;25.83;38.06
64516;BME280;50891;37.380;-122.076;2022-10-16T14:06:41;101193.66;;;25.81;38.04
64516;BME280;50891;37.380;-122.076;2022-10-16T14:09:28;101194.50;;;25.81;38.08
64516;BME280;50891;37.380;-122.076;2022-10-16T14:12:30;101197.41;;;25.80;37.97
64516;BME280;50891;37.380;-122.076;2022-10-16T14:14:52;101197.19;;;25.81;38.10
64516;BME280;50891;37.380;-122.076;2022-10-16T14:17:24;101189.56;;;25.78;38.19
64516;BME280;50891;37.380;-122.076;2022-10-16T14:19:54;101195.16;;;25.77;37.99
64516;BME280;50891;37.380;-122.076;2022-10-16T14:22:30;101189.16;;;25.75;37.97
64516;BME280;50891;37.380;-122.076;2022-10-16T14:24:58;101198.31;;;25.74;38.08
64516;BME280;50891;37.380;-122.076;2022-10-16T14:27:34;101195.00;;;25.72;38.22
64516;BME280;50891;37.380;-122.076;2022-10-16T14:32:53;101190.28;;;25.67;38.35
64516;BME280;50891;37.380;-122.076;2022-10-16T14:35:38;101192.97;;;25.67;38.37
64516;BME280;50891;37.380;-122.076;2022-10-16T14:38:06;101205.63;;;25.67;38.42
64516;BME280;50891;37.380;-122.076;2022-10-16T14:40:47;101201.47;;;25.64;38.62